Time;durP1;ratioP1;P1;durP2;ratioP2;P2;SDS_P1;SDS_P2;PMS_P1;PMS_P2;Temp;Humidity;BMP_temperature;BMP_pressure;BME280_temperature;BME280_humidity;BME280_pressure;Samples;Min_cycle;Max_cycle;Signal;HPM_P1;HPM_P2
2021/12/23 00:00:48;;;;;;;32.70;19.10;;;;;;;-2.50;91.55;101629.63;4996764;28;20477;-58
2021/12/23 00:03:13;;;;;;;33.55;18.63;;;;;;;-2.47;91.19;101626.53;4996231;28;20081;-57
2021/12/23 00:05:39;;;;;;;31.67;19.00;;;;;;;-2.49;90.91;101625.03;4996098;28;20466;-57
2021/12/23 00:08:04;;;;;;;33.92;20.27;;;;;;;-2.48;91.02;101619.41;4996099;28;20034;-57
2021/12/23 00:10:30;;;;;;;34.28;20.25;;;;;;;-2.49;90.96;101611.47;4996062;28;20031;-58
2021/12/23 00:12:55;;;;;;;33.78;19.67;;;;;;;-2.47;91.02;101606.69;4996027;28;20080;-57
2021/12/23 00:15:29;;;;;;;34.15;19.35;;;;;;;-2.47;90.96;101609.41;4996039;28;20478;-57
2021/12/23 00:25:36;;;;;;;31.10;17.70;;;;;;;-2.60;90.34;101562.25;4996679;28;20057;-56
2021/12/23 00:28:02;;;;;;;37.35;19.33;;;;;;;-2.59;90.87;101573.94;4996306;28;20129;-57
2021/12/23 00:30:27;;;;;;;33.58;18.02;;;;;;;-2.56;90.70;101578.94;4996342;28;20142;-55
2021/12/23 00:32:55;;;;;;;40.28;19.23;;;;;;;-2.59;90.68;101558.50;4996716;28;20125;-53
2021/12/23 00:35:21;;;;;;;32.17;17.90;;;;;;;-2.61;89.90;101557.88;4996088;28;20520;-56
2021/12/23 00:37:48;;;;;;;33.60;18.33;;;;;;;-2.62;90.43;101560.78;4996139;28;20054;-56
2021/12/23 00:40:14;;;;;;;35.42;18.50;;;;;;;-2.60;90.70;101556.00;4996106;28;20026;-56
2021/12/23 00:42:40;;;;;;;34.13;18.45;;;;;;;-2.58;90.89;101546.63;4994322;28;20080;-55
2021/12/23 00:45:06;;;;;;;34.08;19.40;;;;;;;-2.55;90.62;101548.13;4995934;28;20022;-57
2021/12/23 00:47:32;;;;;;;33.63;17.63;;;;;;;-2.56;90.61;101555.38;4995033;28;20350;-57
2021/12/23 00:49:57;;;;;;;35.40;20.58;;;;;;;-2.55;90.80;101561.66;4996398;28;20129;-58
2021/12/23 00:52:34;;;;;;;33.80;18.50;;;;;;;-2.56;90.26;101566.22;4996306;28;20026;-57
2021/12/23 00:54:59;;;;;;;32.28;18.73;;;;;;;-2.55;90.40;101556.25;4995941;28;20394;-56
2021/12/23 00:57:29;;;;;;;33.33;19.15;;;;;;;-2.53;90.38;101548.72;4995971;28;20022;-56
2021/12/23 00:59:56;;;;;;;32.70;19.10;;;;;;;-2.52;90.32;101547.69;4995488;28;20039;-56
2021/12/23 01:02:25;;;;;;;34.33;19.73;;;;;;;-2.54;90.46;101536.22;4994036;28;20041;-58
2021/12/23 01:04:50;;;;;;;35.70;19.80;;;;;;;-2.54;90.18;101547.91;4996228;28;20025;-58
2021/12/23 01:07:16;;;;;;;33.22;17.80;;;;;;;-2.54;90.42;101539.78;4995336;28;20022;-57
2021/12/23 01:09:41;;;;;;;34.97;18.83;;;;;;;-2.55;90.02;101543.53;4995224;28;20041;-56
2021/12/23 01:12:10;;;;;;;33.90;18.15;;;;;;;-2.53;90.14;101540.59;4995401;28;20022;-56
2021/12/23 01:14:57;;;;;;;32.35;18.50;;;;;;;-2.55;89.75;101561.66;4995576;28;20058;-56
2021/12/23 01:17:32;;;;;;;33.63;19.02;;;;;;;-2.57;89.81;101559.13;4995122;28;20041;-56
2021/12/23 01:20:01;;;;;;;33.40;19.25;;;;;;;-2.55;89.90;101546.22;4995213;28;20080;-57
2021/12/23 01:22:26;;;;;;;35.53;18.92;;;;;;;-2.54;89.96;101542.50;4995530;28;20121;-57
2021/12/23 01:24:52;;;;;;;35.22;18.75;;;;;;;-2.53;89.72;101540.59;4995416;28;20538;-58
2021/12/23 01:27:17;;;;;;;31.38;17.75;;;;;;;-2.52;90.12;101535.00;4995074;28;20482;-57
2021/12/23 01:29:42;;;;;;;32.95;18.85;;;;;;;-2.52;89.87;101534.16;4995059;28;20034;-57
2021/12/23 01:32:08;;;;;;;33.00;19.48;;;;;;;-2.49;90.08;101525.63;4993614;28;20049;-56
2021/12/23 01:34:35;;;;;;;31.45;18.48;;;;;;;-2.45;90.45;101529.59;4995126;28;20030;-55
2021/12/23 01:37:01;;;;;;;33.10;18.75;;;;;;;-2.39;90.26;101520.66;4994680;28;20473;-56
2021/12/23 01:39:27;;;;;;;34.33;18.45;;;;;;;-2.33;89.91;101510.03;4994930;28;20030;-56
2021/12/23 01:41:52;;;;;;;32.72;18.60;;;;;;;-2.32;89.87;101499.00;4994796;28;20122;-55
2021/12/23 01:44:17;;;;;;;31.98;17.80;;;;;;;-2.30;89.32;101501.50;4994235;28;20489;-56
2021/12/23 01:46:43;;;;;;;34.85;19.52;;;;;;;-2.31;90.00;101506.06;4994917;28;20034;-56
2021/12/23 01:49:08;;;;;;;33.22;18.70;;;;;;;-2.32;89.60;101499.00;4994634;28;20129;-56
2021/12/23 01:51:34;;;;;;;33.22;18.02;;;;;;;-2.29;89.81;101501.28;4994839;28;20470;-57
2021/12/23 01:53:59;;;;;;;35.03;19.58;;;;;;;-2.30;89.34;101494.19;4994243;28;20101;-55
2021/12/23 01:56:25;;;;;;;35.90;21.17;;;;;;;-2.29;89.43;101489.63;4994452;28;20034;-56
2021/12/23 01:58:50;;;;;;;38.13;20.23;;;;;;;-2.32;89.46;101477.31;4993274;28;20112;-55
2021/12/23 02:01:16;;;;;;;33.20;18.90;;;;;;;-2.32;89.75;101485.47;4993747;28;20018;-56
2021/12/23 02:03:41;;;;;;;32.88;18.65;;;;;;;-2.35;89.15;101489.38;4994285;28;20035;-56
2021/12/23 02:06:08;;;;;;;32.50;19.33;;;;;;;-2.38;88.75;101470.84;4993952;28;20093;-56
2021/12/23 02:08:35;;;;;;;35.95;19.55;;;;;;;-2.39;89.16;101471.03;4993534;28;20033;-57
2021/12/23 02:11:02;;;;;;;34.30;20.58;;;;;;;-2.44;89.15;101466.22;4994382;28;20023;-57
2021/12/23 02:13:28;;;;;;;37.00;20.25;;;;;;;-2.46;89.61;101468.31;4994010;28;20026;-54
2021/12/23 02:15:53;;;;;;;33.13;19.30;;;;;;;-2.44;89.73;101465.41;4994035;28;20029;-56
2021/12/23 02:18:20;;;;;;;33.20;18.92;;;;;;;-2.45;89.58;101456.41;4993695;28;20109;-56
2021/12/23 02:20:46;;;;;;;36.35;19.15;;;;;;;-2.48;89.57;101453.28;4994173;28;20030;-58
2021/12/23 02:23:11;;;;;;;37.63;20.63;;;;;;;-2.51;89.59;101451.81;4994129;28;20023;-56
2021/12/23 02:25:37;;;;;;;33.85;18.42;;;;;;;-2.51;89.51;101452.69;4993783;28;20022;-55
2021/12/23 02:28:07;;;;;;;33.20;19.33;;;;;;;-2.55;89.47;101442.44;4994178;28;20041;-58
2021/12/23 02:30:36;;;;;;;34.67;18.80;;;;;;;-2.55;89.52;101434.31;4993707;28;20026;-57
2021/12/23 02:33:03;;;;;;;34.90;19.60;;;;;;;-2.60;89.30;101425.97;4993977;28;20038;-57
2021/12/23 02:35:28;;;;;;;36.92;20.63;;;;;;;-2.65;89.08;101434.69;4993471;28;20031;-57
2021/12/23 02:37:54;;;;;;;35.42;19.85;;;;;;;-2.66;89.52;101443.84;4993740;28;20027;-58
2021/12/23 02:40:34;;;;;;;35.10;19.85;;;;;;;-2.73;89.22;101446.53;4993906;28;20022;-58
2021/12/23 02:43:11;;;;;;;36.65;20.45;;;;;;;-2.75;88.80;101450.50;4994165;28;20034;-56
2021/12/23 02:45:36;;;;;;;35.92;20.13;;;;;;;-2.81;88.90;101457.56;4993993;28;20042;-59
2021/12/23 02:48:02;;;;;;;33.63;19.13;;;;;;;-2.81;89.20;101457.56;4993665;28;20338;-57
2021/12/23 02:50:27;;;;;;;36.47;20.45;;;;;;;-2.84;88.93;101456.09;4994298;28;20068;-58
2021/12/23 02:52:53;;;;;;;35.42;19.67;;;;;;;-2.83;88.81;101460.47;4994003;28;20033;-59
2021/12/23 02:55:19;;;;;;;34.67;20.35;;;;;;;-2.86;89.00;101457.34;4993610;28;20061;-57
2021/12/23 02:57:46;;;;;;;36.58;20.00;;;;;;;-2.89;88.83;101444.19;4993488;28;20034;-60
2021/12/23 03:00:11;;;;;;;34.75;20.63;;;;;;;-2.93;89.02;101440.22;4993263;28;20030;-57
2021/12/23 03:02:38;;;;;;;35.40;21.73;;;;;;;-2.98;89.04;101421.88;4993582;28;20493;-57
2021/12/23 03:05:04;;;;;;;35.75;19.73;;;;;;;-3.03;88.90;101425.19;4992932;28;20446;-59
2021/12/23 03:07:29;;;;;;;35.25;19.83;;;;;;;-3.07;88.98;101420.38;4993388;28;20033;-57
2021/12/23 03:09:55;;;;;;;36.00;19.65;;;;;;;-3.12;89.18;101415.56;4992213;28;20049;-57
2021/12/23 03:12:20;;;;;;;35.08;20.02;;;;;;;-3.16;89.43;101408.88;4992428;28;20054;-57
2021/12/23 03:14:45;;;;;;;36.97;20.67;;;;;;;-3.20;89.77;101407.59;4992528;28;20026;-56
2021/12/23 03:17:10;;;;;;;35.28;21.05;;;;;;;-3.25;89.78;101423.59;4992606;28;20488;-57
2021/12/23 03:19:36;;;;;;;33.80;20.33;;;;;;;-3.27;89.44;101404.03;4993592;28;20034;-56
2021/12/23 03:22:01;;;;;;;35.67;20.85;;;;;;;-3.29;90.35;101407.75;4993299;28;20486;-58
2021/12/23 03:24:27;;;;;;;34.58;20.33;;;;;;;-3.32;89.90;101420.84;4993239;28;20022;-57
2021/12/23 03:26:52;;;;;;;35.95;19.92;;;;;;;-3.34;90.24;101421.06;4993102;28;20030;-57
2021/12/23 03:29:17;;;;;;;37.05;21.67;;;;;;;-3.38;90.22;101402.72;4993559;28;20068;-58
2021/12/23 03:31:43;;;;;;;36.10;20.60;;;;;;;-3.37;90.78;101399.81;4992933;28;20030;-56
2021/12/23 03:34:08;;;;;;;34.40;20.58;;;;;;;-3.38;90.01;101386.50;4992877;28;20022;-56
2021/12/23 03:36:33;;;;;;;37.70;20.33;;;;;;;-3.37;90.41;101375.47;4993572;28;20026;-56
2021/12/23 03:38:59;;;;;;;35.22;19.42;;;;;;;-3.32;90.47;101380.28;4992904;28;20050;-57
2021/12/23 03:41:24;;;;;;;35.78;20.10;;;;;;;-3.32;90.11;101378.41;4992895;28;20496;-56
2021/12/23 03:43:49;;;;;;;36.95;20.30;;;;;;;-3.36;89.85;101374.44;4993099;28;20022;-58
2021/12/23 03:46:14;;;;;;;35.50;22.00;;;;;;;-3.40;90.31;101372.31;4992945;28;20045;-57
2021/12/23 03:48:40;;;;;;;35.63;19.50;;;;;;;-3.43;90.41;101359.19;4992276;28;20398;-57
2021/12/23 03:51:05;;;;;;;35.08;19.30;;;;;;;-3.43;90.67;101346.50;4991754;28;20080;-58
2021/12/23 03:53:30;;;;;;;33.03;19.42;;;;;;;-3.40;90.51;101332.56;4993133;28;20035;-56
2021/12/23 03:55:56;;;;;;;35.72;20.00;;;;;;;-3.37;90.53;101315.13;4993275;28;20478;-56
2021/12/23 03:58:21;;;;;;;42.38;26.42;;;;;;;-3.36;90.85;101309.50;4993016;28;20359;-57
2021/12/23 04:00:47;;;;;;;34.55;20.27;;;;;;;-3.31;90.80;101309.75;4993234;28;20474;-57
2021/12/23 04:03:12;;;;;;;34.63;19.58;;;;;;;-3.34;90.32;101314.69;4991964;28;20030;-56
2021/12/23 04:05:38;;;;;;;33.90;19.75;;;;;;;-3.40;90.26;101293.88;4992613;28;20113;-57
2021/12/23 04:08:04;;;;;;;36.50;20.85;;;;;;;-3.38;90.48;101314.25;4993034;28;20041;-57
2021/12/23 04:10:29;;;;;;;35.70;20.80;;;;;;;-3.38;90.53;101332.38;4993109;28;20027;-58
2021/12/23 04:12:55;;;;;;;39.55;20.42;;;;;;;-3.41;90.83;101325.50;4992874;28;20513;-56
2021/12/23 04:15:20;;;;;;;33.25;19.40;;;;;;;-3.41;90.74;101303.00;4993512;28;20538;-57
2021/12/23 04:17:46;;;;;;;35.35;20.17;;;;;;;-3.42;90.93;101301.34;4992845;28;20485;-57
2021/12/23 04:20:19;;;;;;;35.13;20.58;;;;;;;-3.42;91.10;101304.03;4992682;28;20121;-58
2021/12/23 04:22:46;;;;;;;35.47;21.02;;;;;;;-3.42;90.86;101312.16;4996503;28;20030;-57
2021/12/23 04:25:13;;;;;;;33.22;19.73;;;;;;;-3.41;91.02;101316.53;4996481;28;20057;-56
2021/12/23 04:27:39;;;;;;;36.25;20.33;;;;;;;-3.40;91.29;101319.03;4994965;28;20030;-57
2021/12/23 04:30:07;;;;;;;33.67;19.00;;;;;;;-3.38;91.05;101310.75;4996175;28;20026;-57
2021/12/23 04:32:33;;;;;;;37.30;20.17;;;;;;;-3.39;91.29;101298.25;4995596;28;20030;-57
2021/12/23 04:34:58;;;;;;;37.42;21.10;;;;;;;-3.38;90.89;101305.31;4995593;28;20034;-57
2021/12/23 04:37:23;;;;;;;34.88;19.98;;;;;;;-3.38;91.40;101300.75;4996089;28;20436;-57
2021/12/23 04:39:49;;;;;;;35.95;22.65;;;;;;;-3.35;91.35;101299.50;4996209;28;20081;-57
2021/12/23 04:42:14;;;;;;;36.03;20.33;;;;;;;-3.36;91.24;101304.09;4996273;28;20027;-58
2021/12/23 04:44:39;;;;;;;36.08;20.90;;;;;;;-3.31;91.59;101271.84;4996181;28;20081;-57
2021/12/23 04:47:05;;;;;;;33.72;20.60;;;;;;;-3.27;91.40;101275.00;4996497;28;20122;-58
2021/12/23 04:49:30;;;;;;;35.33;19.73;;;;;;;-3.26;91.06;101273.94;4995436;28;20498;-57
2021/12/23 04:51:55;;;;;;;38.33;23.08;;;;;;;-3.22;91.47;101258.13;4995513;28;20030;-57
2021/12/23 04:54:21;;;;;;;35.17;20.95;;;;;;;-3.20;91.61;101273.13;4994439;28;20022;-59
2021/12/23 04:56:46;;;;;;;36.63;20.10;;;;;;;-3.18;91.30;101281.03;4995964;28;20381;-57
2021/12/23 04:59:11;;;;;;;36.17;20.38;;;;;;;-3.18;91.30;101287.28;4995746;28;20030;-57
2021/12/23 05:01:36;;;;;;;35.90;20.67;;;;;;;-3.17;91.08;101277.28;4995585;28;20022;-57
2021/12/23 05:04:02;;;;;;;35.72;20.48;;;;;;;-3.15;91.79;101258.97;4994579;28;20077;-57
2021/12/23 05:06:27;;;;;;;39.45;24.50;;;;;;;-3.10;92.19;101251.06;4995567;28;20184;-57
2021/12/23 05:08:53;;;;;;;37.50;20.33;;;;;;;-3.03;91.65;101259.22;4995643;28;20038;-57
2021/12/23 05:11:18;;;;;;;39.45;22.45;;;;;;;-3.00;91.48;101250.69;4995646;28;20019;-57
2021/12/23 05:13:49;;;;;;;36.80;20.98;;;;;;;-2.98;91.20;101246.72;4995922;28;20057;-57
2021/12/23 05:16:15;;;;;;;35.67;20.15;;;;;;;-2.94;91.30;101249.84;4995492;28;20033;-58
2021/12/23 05:18:41;;;;;;;37.35;21.05;;;;;;;-2.93;91.08;101248.00;4995453;28;20026;-56
2021/12/23 05:21:06;;;;;;;36.63;21.45;;;;;;;-2.89;91.50;101246.53;4995536;28;20033;-58
2021/12/23 05:23:32;;;;;;;37.75;21.42;;;;;;;-2.87;91.18;101250.69;4994899;28;20027;-56
2021/12/23 05:25:57;;;;;;;35.47;20.33;;;;;;;-2.84;90.64;101244.06;4995263;28;20023;-56
2021/12/23 05:28:22;;;;;;;38.65;21.92;;;;;;;-2.84;90.76;101247.56;4995318;28;20037;-56
2021/12/23 05:30:47;;;;;;;41.33;22.90;;;;;;;-2.83;90.64;101241.13;4995099;28;20034;-56
2021/12/23 05:33:13;;;;;;;39.30;23.10;;;;;;;-2.79;90.91;101236.13;4994782;28;20109;-56
2021/12/23 05:35:38;;;;;;;36.13;21.50;;;;;;;-2.76;91.17;101232.16;4994961;28;20076;-57
2021/12/23 05:38:03;;;;;;;39.05;22.33;;;;;;;-2.75;90.91;101233.84;4994990;28;20045;-57
2021/12/23 05:40:30;;;;;;;41.35;23.08;;;;;;;-2.73;90.47;101235.28;4994657;28;20022;-56
2021/12/23 05:42:57;;;;;;;39.55;22.58;;;;;;;-2.71;90.87;101233.22;4994715;28;20030;-56
2021/12/23 05:45:22;;;;;;;39.45;24.85;;;;;;;-2.70;90.93;101217.81;4995011;28;20037;-57
2021/12/23 05:47:49;;;;;;;42.00;25.40;;;;;;;-2.69;91.24;101222.16;4995210;28;20030;-58
2021/12/23 05:50:16;;;;;;;39.67;22.80;;;;;;;-2.69;90.97;101216.75;4995077;28;20118;-57
2021/12/23 05:52:42;;;;;;;39.22;23.17;;;;;;;-2.70;91.16;101215.91;4994592;28;20037;-56
2021/12/23 05:55:08;;;;;;;38.65;23.02;;;;;;;-2.72;90.86;101207.16;4993398;28;20125;-56
2021/12/23 05:57:35;;;;;;;39.72;22.80;;;;;;;-2.74;91.05;101211.94;4994510;28;20022;-57
2021/12/23 06:00:01;;;;;;;37.70;21.80;;;;;;;-2.76;91.09;101219.47;4994706;28;20110;-55
2021/12/23 06:02:26;;;;;;;40.03;22.35;;;;;;;-2.78;91.01;101216.13;4993688;28;20026;-58
2021/12/23 06:04:52;;;;;;;40.33;22.30;;;;;;;-2.79;90.72;101219.06;4993866;28;20437;-56
2021/12/23 06:07:17;;;;;;;41.22;21.95;;;;;;;-2.81;90.65;101219.25;4994602;28;20030;-54
2021/12/23 06:09:43;;;;;;;39.25;23.33;;;;;;;-2.82;91.21;101220.28;4994590;28;20437;-55
2021/12/23 06:12:08;;;;;;;38.15;22.75;;;;;;;-2.84;91.21;101234.03;4994132;28;20498;-57
2021/12/23 06:14:33;;;;;;;39.90;23.80;;;;;;;-2.83;91.40;101227.59;4994684;28;20026;-56
2021/12/23 06:17:01;;;;;;;39.67;22.67;;;;;;;-2.82;91.59;101217.56;4994551;28;20037;-56
2021/12/23 06:19:26;;;;;;;38.67;21.73;;;;;;;-2.82;91.40;101213.00;4994779;28;20105;-56
2021/12/23 06:21:51;;;;;;;39.05;22.92;;;;;;;-2.82;91.54;101207.59;4994421;28;20105;-56
2021/12/23 06:24:17;;;;;;;39.17;22.20;;;;;;;-2.80;91.64;101207.38;4994895;28;20492;-58
2021/12/23 06:26:42;;;;;;;40.95;24.50;;;;;;;-2.76;91.77;101195.09;4994012;28;20035;-56
2021/12/23 06:29:07;;;;;;;37.53;21.67;;;;;;;-2.74;91.48;101192.16;4994487;28;20492;-56
2021/12/23 06:31:33;;;;;;;38.25;21.63;;;;;;;-2.73;91.31;101181.13;4993829;28;20045;-56
2021/12/23 06:33:58;;;;;;;39.40;23.35;;;;;;;-2.73;91.50;101178.41;4994486;28;20428;-56
2021/12/23 06:36:23;;;;;;;39.67;22.02;;;;;;;-2.74;91.11;101167.78;4992953;28;20030;-56
2021/12/23 06:38:49;;;;;;;37.22;21.50;;;;;;;-2.73;91.29;101177.59;4994308;28;20022;-58
2021/12/23 06:41:16;;;;;;;38.83;22.20;;;;;;;-2.74;91.40;101179.44;4994315;28;20030;-56
2021/12/23 06:43:42;;;;;;;39.13;21.90;;;;;;;-2.75;91.41;101168.84;4993583;28;20169;-56
2021/12/23 06:46:07;;;;;;;37.83;22.77;;;;;;;-2.77;91.36;101171.75;4993541;28;20054;-58
2021/12/23 06:48:33;;;;;;;39.42;22.90;;;;;;;-2.78;90.89;101156.56;4994185;28;20124;-58
2021/12/23 06:50:59;;;;;;;38.95;22.63;;;;;;;-2.76;91.24;101150.91;4994139;28;20053;-56
2021/12/23 06:53:25;;;;;;;39.70;23.10;;;;;;;-2.76;91.43;101151.75;4994295;28;20490;-58
2021/12/23 06:55:52;;;;;;;40.72;23.38;;;;;;;-2.72;91.78;101146.75;4994039;28;20445;-56
2021/12/23 06:58:20;;;;;;;40.22;23.90;;;;;;;-2.67;91.59;101144.25;4993324;28;20060;-57
2021/12/23 07:00:46;;;;;;;38.75;21.50;;;;;;;-2.65;91.15;101161.13;4993969;28;20097;-56
2021/12/23 07:03:12;;;;;;;40.20;22.30;;;;;;;-2.62;91.26;101160.72;4993565;28;20054;-56
2021/12/23 07:05:38;;;;;;;39.70;22.80;;;;;;;-2.60;91.15;101161.34;4993968;28;20037;-57
2021/12/23 07:08:09;;;;;;;39.13;22.73;;;;;;;-2.56;91.11;101175.28;4994116;28;20027;-57
2021/12/23 07:10:34;;;;;;;37.63;21.92;;;;;;;-2.54;91.40;101190.28;4993614;28;20437;-56
2021/12/23 07:13:00;;;;;;;42.10;24.85;;;;;;;-2.49;91.33;101177.97;4993346;28;20540;-57
2021/12/23 07:15:27;;;;;;;40.22;23.05;;;;;;;-2.47;91.29;101173.19;4993718;28;20057;-55
2021/12/23 07:17:55;;;;;;;39.60;21.88;;;;;;;-2.47;91.02;101170.47;4993655;28;20089;-56
2021/12/23 07:20:22;;;;;;;38.03;20.75;;;;;;;-2.41;91.00;101175.06;4993561;28;20071;-57
2021/12/23 07:22:47;;;;;;;40.83;22.15;;;;;;;-2.40;90.85;101169.41;4993511;28;20030;-55
2021/12/23 07:25:13;;;;;;;39.58;22.13;;;;;;;-2.38;91.12;101164.63;4993376;28;20104;-56
2021/12/23 07:27:39;;;;;;;39.47;23.38;;;;;;;-2.35;90.87;101163.38;4993632;28;20027;-56
2021/12/23 07:30:05;;;;;;;41.13;23.55;;;;;;;-2.33;90.61;101171.28;4993704;28;20065;-56
2021/12/23 07:32:31;;;;;;;40.80;22.95;;;;;;;-2.32;90.49;101175.66;4993669;28;20050;-58
2021/12/23 07:34:56;;;;;;;41.40;22.70;;;;;;;-2.32;90.47;101171.06;4994004;28;20117;-56
2021/12/23 07:37:21;;;;;;;40.50;23.17;;;;;;;-2.29;90.74;101170.63;4991448;28;20027;-56
2021/12/23 07:39:48;;;;;;;41.30;22.73;;;;;;;-2.26;90.33;101174.78;4992453;28;20071;-56
2021/12/23 07:42:15;;;;;;;39.72;22.15;;;;;;;-2.27;90.59;101171.25;4993604;28;20069;-58
2021/12/23 07:44:44;;;;;;;40.38;22.95;;;;;;;-2.23;90.77;101167.09;4993593;28;20061;-58
2021/12/23 07:47:10;;;;;;;41.28;24.15;;;;;;;-2.20;90.82;101163.94;4993372;28;20069;-56
2021/12/23 07:49:36;;;;;;;39.78;22.75;;;;;;;-2.22;90.45;101174.16;4993322;28;20058;-56
2021/12/23 07:52:01;;;;;;;39.30;22.02;;;;;;;-2.21;90.63;101183.13;4993352;28;20390;-56
2021/12/23 07:54:26;;;;;;;38.38;22.30;;;;;;;-2.18;90.72;101176.44;4993217;28;20466;-56
2021/12/23 07:56:52;;;;;;;39.25;23.42;;;;;;;-2.16;90.78;101174.38;4995998;28;20038;-58
2021/12/23 07:59:17;;;;;;;43.67;25.63;;;;;;;-2.14;90.84;101175.81;4997066;28;20018;-56
2021/12/23 08:01:42;;;;;;;38.90;22.02;;;;;;;-2.09;90.62;101167.88;4997074;28;20065;-58
2021/12/23 08:04:08;;;;;;;38.95;22.48;;;;;;;-2.07;90.78;101162.25;4995762;28;20040;-58
2021/12/23 08:06:33;;;;;;;41.50;22.67;;;;;;;-2.12;90.46;101151.19;4997026;28;20038;-57
2021/12/23 08:08:58;;;;;;;39.28;21.60;;;;;;;-2.05;90.17;101154.72;4995608;28;20044;-57
2021/12/23 08:11:24;;;;;;;37.58;20.58;;;;;;;-2.02;90.81;101145.31;4996829;28;20381;-57
2021/12/23 08:13:49;;;;;;;40.42;22.98;;;;;;;-1.99;90.47;101150.31;4995516;28;20027;-57
2021/12/23 08:16:14;;;;;;;38.63;21.15;;;;;;;-1.96;90.68;101158.00;4995672;28;20027;-57
2021/12/23 08:18:39;;;;;;;38.90;22.20;;;;;;;-1.94;90.38;101155.94;4996682;28;20041;-58
2021/12/23 08:21:05;;;;;;;40.70;22.50;;;;;;;-1.92;90.42;101156.56;4996892;28;20482;-57
2021/12/23 08:23:30;;;;;;;41.40;23.95;;;;;;;-1.89;90.77;101158.84;4996804;28;20037;-57
2021/12/23 08:25:59;;;;;;;40.22;22.73;;;;;;;-1.87;90.53;101162.16;4996710;28;20053;-57
2021/12/23 08:28:25;;;;;;;40.50;22.38;;;;;;;-1.85;90.54;101161.94;4996781;28;20038;-57
2021/12/23 08:30:50;;;;;;;37.53;21.40;;;;;;;-1.85;90.54;101154.63;4996390;28;20030;-57
2021/12/23 08:33:15;;;;;;;40.55;22.48;;;;;;;-1.84;90.24;101145.47;4996466;28;20478;-57
2021/12/23 08:35:41;;;;;;;39.70;21.25;;;;;;;-1.79;90.33;101139.38;4996491;28;20030;-57
2021/12/23 08:38:06;;;;;;;37.88;20.75;;;;;;;-1.74;90.77;101139.56;4996593;28;20509;-57
2021/12/23 08:40:33;;;;;;;37.17;21.73;;;;;;;-1.69;91.21;101134.31;4996426;28;20104;-56
2021/12/23 08:42:59;;;;;;;39.47;21.48;;;;;;;-1.65;90.56;101135.53;4996469;28;20101;-56
2021/12/23 08:45:30;;;;;;;38.85;21.38;;;;;;;-1.60;90.13;101141.16;4996315;28;20057;-58
2021/12/23 08:47:56;;;;;;;42.13;23.60;;;;;;;-1.60;90.61;101119.44;4996470;28;20026;-56
2021/12/23 08:50:24;;;;;;;42.88;25.15;;;;;;;-1.55;90.75;101121.50;4996573;28;20061;-57
2021/12/23 08:52:50;;;;;;;39.92;21.77;;;;;;;-1.51;89.88;101108.34;4996258;28;20367;-56
2021/12/23 08:55:15;;;;;;;36.65;20.73;;;;;;;-1.46;89.94;101112.06;4996073;28;20027;-56
2021/12/23 08:57:41;;;;;;;42.05;22.60;;;;;;;-1.38;89.92;101096.56;4996107;28;20109;-57
2021/12/23 09:00:10;;;;;;;41.63;21.52;;;;;;;-1.33;89.78;101094.84;4995958;28;20114;-58
2021/12/23 09:02:36;;;;;;;38.60;21.13;;;;;;;-1.29;89.83;101096.06;4996048;28;20030;-57
2021/12/23 09:05:02;;;;;;;38.33;21.23;;;;;;;-1.26;89.35;101090.19;4995902;28;20371;-56
2021/12/23 09:07:28;;;;;;;38.50;20.25;;;;;;;-1.22;89.32;101103.31;4994939;28;20565;-57
2021/12/23 09:09:53;;;;;;;39.10;20.73;;;;;;;-1.20;88.75;101104.75;4995854;28;20113;-58
2021/12/23 09:12:19;;;;;;;37.95;22.40;;;;;;;-1.17;88.79;101103.47;4996103;28;20037;-57
2021/12/23 09:14:45;;;;;;;42.90;24.52;;;;;;;-1.14;88.61;101103.91;4995672;28;20061;-58
2021/12/23 09:17:11;;;;;;;40.97;22.42;;;;;;;-1.12;89.11;101101.75;4995550;28;20030;-57
2021/12/23 09:19:36;;;;;;;38.45;19.75;;;;;;;-1.07;88.60;101100.28;4995562;28;20038;-56
2021/12/23 09:22:02;;;;;;;39.80;21.77;;;;;;;-1.00;88.74;101101.91;4995396;28;20545;-57
2021/12/23 09:24:28;;;;;;;36.53;20.92;;;;;;;-0.92;88.73;101097.22;4995570;28;20113;-57
2021/12/23 09:27:07;;;;;;;40.67;23.20;;;;;;;-0.93;87.48;101099.09;4995514;28;20058;-58
2021/12/23 09:34:45;;;;;;;40.67;22.60;;;;;;;-0.90;87.88;101093.22;4995418;28;20041;-56
2021/12/23 09:37:10;;;;;;;38.78;21.80;;;;;;;-0.87;88.04;101083.78;4995282;28;20030;-57
2021/12/23 09:39:36;;;;;;;40.60;22.95;;;;;;;-0.87;88.07;101086.50;4995186;28;20037;-57
2021/12/23 09:42:02;;;;;;;40.30;22.73;;;;;;;-0.87;87.78;101079.22;4995125;28;20453;-57
2021/12/23 09:44:29;;;;;;;41.83;22.13;;;;;;;-0.82;87.81;101081.25;4995245;28;20316;-56
2021/12/23 09:46:57;;;;;;;40.22;22.30;;;;;;;-0.84;86.74;101070.59;4994835;28;20098;-56
2021/12/23 09:49:24;;;;;;;40.97;21.55;;;;;;;-0.85;87.18;101068.09;4995311;28;20046;-56
2021/12/23 09:51:49;;;;;;;41.97;22.70;;;;;;;-0.85;87.23;101054.53;4995013;28;20374;-56
2021/12/23 09:54:18;;;;;;;42.20;24.67;;;;;;;-0.83;87.70;101049.72;4994954;28;20023;-57
2021/12/23 09:56:44;;;;;;;41.83;22.83;;;;;;;-0.75;88.09;101051.28;4994934;28;20109;-58
2021/12/23 09:59:10;;;;;;;39.80;23.52;;;;;;;-0.73;87.19;101049.16;4994884;28;20465;-56
2021/12/23 10:01:36;;;;;;;39.75;22.85;;;;;;;-0.71;87.16;101047.06;4994898;28;20034;-57
2021/12/23 10:04:02;;;;;;;40.75;23.02;;;;;;;-0.72;87.32;101040.81;4995012;28;20018;-56
2021/12/23 10:06:27;;;;;;;40.53;23.63;;;;;;;-0.69;87.68;101048.50;4994752;28;20022;-56
2021/12/23 10:08:54;;;;;;;43.10;23.67;;;;;;;-0.68;87.50;101038.47;4994836;28;20074;-57
2021/12/23 10:30:51;;;;;;;41.25;22.55;;;;;;;-0.32;86.74;100998.72;4994780;28;20037;-57
2021/12/23 10:33:43;;;;;;;38.88;24.00;;;;;;;-0.24;86.89;100998.41;4994457;28;20034;-56
2021/12/23 10:38:40;;;;;;;40.83;22.15;;;;;;;-0.22;86.61;100970.97;4994293;28;20038;-58
2021/12/23 10:41:19;;;;;;;40.03;22.48;;;;;;;-0.27;86.70;100959.97;4994203;28;20074;-57
2021/12/23 10:44:03;;;;;;;38.53;22.27;;;;;;;-0.23;86.85;100951.13;4994185;28;20042;-57
2021/12/23 10:46:38;;;;;;;43.58;23.70;;;;;;;-0.17;86.47;100949.38;4994229;28;20453;-57
2021/12/23 10:51:59;;;;;;;41.53;22.27;;;;;;;-0.15;86.80;100947.25;4994266;28;20042;-58
2021/12/23 11:00:19;;;;;;;44.65;22.50;;;;;;;-0.02;86.59;100941.59;4994318;28;20116;-59
2021/12/23 11:03:17;;;;;;;40.95;23.60;;;;;;;0.03;87.98;100942.81;4994081;28;20038;-57
2021/12/23 11:05:51;;;;;;;40.88;22.08;;;;;;;0.01;87.19;100923.97;4994021;28;20074;-58
2021/12/23 11:32:11;;;;;;;39.80;22.08;;;;;;;0.24;87.02;100889.72;4994577;28;20125;-58
2021/12/23 11:39:46;;;;;;;41.40;22.58;;;;;;;0.47;87.21;100875.25;4997839;28;20427;-57
2021/12/23 11:42:30;;;;;;;42.53;24.42;;;;;;;0.55;87.10;100868.66;4997473;28;20117;-56
2021/12/23 11:44:56;;;;;;;42.22;22.92;;;;;;;0.66;87.59;100861.50;4997371;28;20058;-59
2021/12/23 11:47:24;;;;;;;37.70;22.65;;;;;;;0.75;87.57;100865.53;4997514;28;20065;-59
2021/12/23 11:49:49;;;;;;;41.22;22.77;;;;;;;0.85;87.10;100867.66;4997191;28;20537;-58
2021/12/23 11:52:16;;;;;;;40.03;21.10;;;;;;;0.91;86.64;100851.16;4997030;28;20026;-59
2021/12/23 11:54:45;;;;;;;40.88;22.02;;;;;;;0.92;87.13;100839.19;4997585;28;20026;-57
2021/12/23 11:57:26;;;;;;;41.45;21.98;;;;;;;1.05;87.07;100845.44;4997155;28;20046;-57
2021/12/23 12:00:14;;;;;;;41.22;21.73;;;;;;;1.12;86.90;100828.94;4996956;28;20030;-57
2021/12/23 12:02:39;;;;;;;40.75;21.13;;;;;;;1.21;87.09;100827.47;4997441;28;20441;-59
2021/12/23 12:05:14;;;;;;;42.30;21.55;;;;;;;1.32;86.62;100818.44;4997025;28;20030;-57
2021/12/23 12:07:41;;;;;;;40.45;22.08;;;;;;;1.46;86.60;100810.78;4996224;28;20478;-58
2021/12/23 12:10:09;;;;;;;38.13;19.83;;;;;;;1.62;86.23;100811.03;4997062;28;20029;-58
2021/12/23 12:12:55;;;;;;;37.95;19.35;;;;;;;1.74;86.33;100800.03;4996796;28;20405;-56
2021/12/23 12:15:34;;;;;;;38.40;18.90;;;;;;;1.90;85.16;100801.91;4996713;28;20089;-56
2021/12/23 12:18:01;;;;;;;35.85;19.38;;;;;;;1.93;84.43;100795.97;4996805;28;20036;-58
2021/12/23 12:20:42;;;;;;;36.78;19.95;;;;;;;1.96;84.31;100791.91;4997008;28;20121;-58